sensor_id;sensor_type;location;lat;lon;timestamp;pressure;altitude;pressure_sealevel;temperature;humidity
9740;BME280;4909;42.680;26.324;2022-08-01T00:01:53;98139.50;;;25.26;45.24
9740;BME280;4909;42.680;26.324;2022-08-01T00:04:20;98123.00;;;25.27;46.43
9740;BME280;4909;42.680;26.324;2022-08-01T00:06:47;98132.66;;;25.38;44.53
9740;BME280;4909;42.680;26.324;2022-08-01T00:09:13;98117.88;;;25.57;45.93
9740;BME280;4909;42.680;26.324;2022-08-01T00:11:40;98114.53;;;25.30;43.57
9740;BME280;4909;42.680;26.324;2022-08-01T00:14:09;98115.91;;;25.26;44.31
9740;BME280;4909;42.680;26.324;2022-08-01T00:16:36;98116.41;;;25.14;44.38
9740;BME280;4909;42.680;26.324;2022-08-01T00:19:04;98100.13;;;25.14;43.46
9740;BME280;4909;42.680;26.324;2022-08-01T00:21:31;98113.88;;;25.20;42.46
9740;BME280;4909;42.680;26.324;2022-08-01T00:23:58;98110.13;;;25.13;43.17
9740;BME280;4909;42.680;26.324;2022-08-01T00:26:25;98096.38;;;25.23;44.58
9740;BME280;4909;42.680;26.324;2022-08-01T00:28:52;98104.03;;;25.19;41.51
9740;BME280;4909;42.680;26.324;2022-08-01T00:31:20;98107.09;;;25.08;42.08
9740;BME280;4909;42.680;26.324;2022-08-01T00:33:47;98099.97;;;25.15;42.01
9740;BME280;4909;42.680;26.324;2022-08-01T00:36:14;98087.75;;;25.11;41.44
9740;BME280;4909;42.680;26.324;2022-08-01T00:38:41;98095.53;;;25.14;41.44
9740;BME280;4909;42.680;26.324;2022-08-01T00:41:08;98100.31;;;25.04;40.97
9740;BME280;4909;42.680;26.324;2022-08-01T00:43:34;98103.72;;;25.06;41.35
9740;BME280;4909;42.680;26.324;2022-08-01T00:46:01;98102.69;;;25.07;40.86
9740;BME280;4909;42.680;26.324;2022-08-01T00:48:30;98122.75;;;24.98;40.81
9740;BME280;4909;42.680;26.324;2022-08-01T00:50:56;98112.22;;;24.87;40.96
9740;BME280;4909;42.680;26.324;2022-08-01T00:53:24;98098.66;;;24.87;42.03
9740;BME280;4909;42.680;26.324;2022-08-01T00:55:52;98099.78;;;24.84;42.48
9740;BME280;4909;42.680;26.324;2022-08-01T00:58:19;98091.84;;;24.83;42.60
9740;BME280;4909;42.680;26.324;2022-08-01T01:00:46;98099.97;;;24.83;42.67
9740;BME280;4909;42.680;26.324;2022-08-01T01:03:13;98107.09;;;24.84;42.94
9740;BME280;4909;42.680;26.324;2022-08-01T01:05:47;98106.91;;;24.69;43.88
9740;BME280;4909;42.680;26.324;2022-08-01T01:08:19;98100.81;;;24.67;44.23
9740;BME280;4909;42.680;26.324;2022-08-01T01:10:54;98096.41;;;24.66;44.50
9740;BME280;4909;42.680;26.324;2022-08-01T01:13:28;98094.56;;;24.66;43.72
9740;BME280;4909;42.680;26.324;2022-08-01T01:16:01;98089.63;;;24.78;43.83
9740;BME280;4909;42.680;26.324;2022-08-01T01:18:31;98093.00;;;24.80;44.65
9740;BME280;4909;42.680;26.324;2022-08-01T01:21:08;98088.44;;;24.73;43.25
9740;BME280;4909;42.680;26.324;2022-08-01T01:23:46;98083.69;;;24.66;43.61
9740;BME280;4909;42.680;26.324;2022-08-01T01:26:36;98093.00;;;24.56;43.93
9740;BME280;4909;42.680;26.324;2022-08-01T01:29:11;98087.78;;;24.54;44.83
9740;BME280;4909;42.680;26.324;2022-08-01T01:31:43;98080.63;;;24.45;45.03
9740;BME280;4909;42.680;26.324;2022-08-01T01:34:11;98076.06;;;24.46;44.79
9740;BME280;4909;42.680;26.324;2022-08-01T01:36:40;98083.34;;;24.37;45.34
9740;BME280;4909;42.680;26.324;2022-08-01T01:39:07;98073.19;;;24.39;45.10
9740;BME280;4909;42.680;26.324;2022-08-01T01:41:35;98075.22;;;24.37;44.69
9740;BME280;4909;42.680;26.324;2022-08-01T01:44:04;98077.06;;;24.45;45.37
9740;BME280;4909;42.680;26.324;2022-08-01T01:46:33;98073.53;;;24.44;45.32
9740;BME280;4909;42.680;26.324;2022-08-01T01:49:02;98062.00;;;24.42;44.94
9740;BME280;4909;42.680;26.324;2022-08-01T01:51:30;98063.00;;;24.33;45.10
9740;BME280;4909;42.680;26.324;2022-08-01T01:53:58;98058.94;;;24.29;45.37
9740;BME280;4909;42.680;26.324;2022-08-01T01:56:26;98059.44;;;24.33;45.66
9740;BME280;4909;42.680;26.324;2022-08-01T01:58:56;98051.81;;;24.36;45.53
9740;BME280;4909;42.680;26.324;2022-08-01T02:01:26;98064.00;;;24.32;44.98
9740;BME280;4909;42.680;26.324;2022-08-01T02:03:56;98067.94;;;24.30;44.92
9740;BME280;4909;42.680;26.324;2022-08-01T02:06:24;98058.25;;;24.43;45.13
9740;BME280;4909;42.680;26.324;2022-08-01T02:08:53;98063.69;;;24.43;45.29
9740;BME280;4909;42.680;26.324;2022-08-01T02:11:21;98067.56;;;24.41;45.24
9740;BME280;4909;42.680;26.324;2022-08-01T02:13:53;98067.06;;;24.45;45.11
9740;BME280;4909;42.680;26.324;2022-08-01T02:16:23;98060.31;;;24.49;44.88
9740;BME280;4909;42.680;26.324;2022-08-01T02:18:51;98068.75;;;24.46;44.59
9740;BME280;4909;42.680;26.324;2022-08-01T02:21:25;98040.47;;;24.33;44.73
9740;BME280;4909;42.680;26.324;2022-08-01T02:23:54;98018.75;;;24.16;44.94
9740;BME280;4909;42.680;26.324;2022-08-01T02:26:22;98064.00;;;24.32;44.83
9740;BME280;4909;42.680;26.324;2022-08-01T02:28:52;98066.06;;;24.38;45.03
9740;BME280;4909;42.680;26.324;2022-08-01T02:31:21;98058.25;;;24.35;44.99
9740;BME280;4909;42.680;26.324;2022-08-01T02:33:55;98054.38;;;24.30;44.75
9740;BME280;4909;42.680;26.324;2022-08-01T02:36:26;98051.16;;;24.34;45.85
9740;BME280;4909;42.680;26.324;2022-08-01T02:38:55;98039.75;;;24.22;44.92
9740;BME280;4909;42.680;26.324;2022-08-01T02:41:27;98061.31;;;24.24;44.71
9740;BME280;4909;42.680;26.324;2022-08-01T02:43:59;98070.63;;;24.30;44.69
9740;BME280;4909;42.680;26.324;2022-08-01T02:46:36;98060.28;;;24.25;44.24
9740;BME280;4909;42.680;26.324;2022-08-01T02:49:05;98071.25;;;24.15;43.51
9740;BME280;4909;42.680;26.324;2022-08-01T02:51:35;98064.28;;;24.05;43.04
9740;BME280;4909;42.680;26.324;2022-08-01T02:54:04;98067.22;;;24.19;43.10
9740;BME280;4909;42.680;26.324;2022-08-01T02:56:34;98082.81;;;24.25;42.10
9740;BME280;4909;42.680;26.324;2022-08-01T02:59:04;98063.66;;;24.19;41.90
9740;BME280;4909;42.680;26.324;2022-08-01T03:01:33;98055.81;;;24.16;41.76
9740;BME280;4909;42.680;26.324;2022-08-01T03:04:01;98055.47;;;24.11;42.97
9740;BME280;4909;42.680;26.324;2022-08-01T03:06:29;98052.59;;;23.96;41.30
9740;BME280;4909;42.680;26.324;2022-08-01T03:08:59;98059.38;;;24.00;41.22
9740;BME280;4909;42.680;26.324;2022-08-01T03:11:27;98062.94;;;24.01;41.39
9740;BME280;4909;42.680;26.324;2022-08-01T03:13:56;98059.03;;;23.95;42.14
9740;BME280;4909;42.680;26.324;2022-08-01T03:16:24;98063.25;;;23.98;41.55
9740;BME280;4909;42.680;26.324;2022-08-01T03:18:53;98059.88;;;23.96;41.21
9740;BME280;4909;42.680;26.324;2022-08-01T03:21:23;98066.97;;;23.89;41.57
9740;BME280;4909;42.680;26.324;2022-08-01T03:23:50;98074.72;;;23.83;41.07
9740;BME280;4909;42.680;26.324;2022-08-01T03:26:26;98069.31;;;23.92;40.69
9740;BME280;4909;42.680;26.324;2022-08-01T03:28:56;98074.94;;;23.90;40.13
9740;BME280;4909;42.680;26.324;2022-08-01T03:31:24;98072.22;;;23.98;40.46
9740;BME280;4909;42.680;26.324;2022-08-01T03:33:52;98071.22;;;23.99;40.70
9740;BME280;4909;42.680;26.324;2022-08-01T03:36:22;98059.69;;;23.89;40.93
9740;BME280;4909;42.680;26.324;2022-08-01T03:38:52;98078.16;;;23.94;40.14
9740;BME280;4909;42.680;26.324;2022-08-01T03:41:27;98072.25;;;24.06;40.10
9740;BME280;4909;42.680;26.324;2022-08-01T03:44:00;98080.72;;;23.95;40.17
9740;BME280;4909;42.680;26.324;2022-08-01T03:46:33;98075.09;;;23.97;40.07
9740;BME280;4909;42.680;26.324;2022-08-01T03:49:06;98074.06;;;23.90;40.85
9740;BME280;4909;42.680;26.324;2022-08-01T03:51:37;98067.50;;;24.00;39.90
9740;BME280;4909;42.680;26.324;2022-08-01T03:54:05;98071.50;;;24.30;40.42
9740;BME280;4909;42.680;26.324;2022-08-01T03:56:34;98088.22;;;24.25;39.82
9740;BME280;4909;42.680;26.324;2022-08-01T03:59:03;98085.38;;;24.35;39.48
9740;BME280;4909;42.680;26.324;2022-08-01T04:01:31;98086.56;;;24.33;39.77
9740;BME280;4909;42.680;26.324;2022-08-01T04:03:59;98076.91;;;24.38;39.57
9740;BME280;4909;42.680;26.324;2022-08-01T04:06:26;98081.47;;;24.38;39.08
9740;BME280;4909;42.680;26.324;2022-08-01T04:08:54;98091.47;;;24.45;38.49
9740;BME280;4909;42.680;26.324;2022-08-01T04:11:25;98081.13;;;24.41;39.07
9740;BME280;4909;42.680;26.324;2022-08-01T04:13:54;98085.22;;;24.37;38.53
9740;BME280;4909;42.680;26.324;2022-08-01T04:16:21;98091.97;;;24.41;38.91
9740;BME280;4909;42.680;26.324;2022-08-01T04:18:48;98093.19;;;24.62;39.54
9740;BME280;4909;42.680;26.324;2022-08-01T04:21:18;98068.09;;;24.52;38.17
9740;BME280;4909;42.680;26.324;2022-08-01T04:23:47;98092.66;;;24.75;37.86
9740;BME280;4909;42.680;26.324;2022-08-01T04:26:17;98094.03;;;24.79;38.84
9740;BME280;4909;42.680;26.324;2022-08-01T04:28:45;98103.00;;;24.80;37.61
9740;BME280;4909;42.680;26.324;2022-08-01T04:31:17;98093.72;;;24.90;37.83
9740;BME280;4909;42.680;26.324;2022-08-01T04:33:48;98090.00;;;24.91;37.92
9740;BME280;4909;42.680;26.324;2022-08-01T04:36:18;98058.91;;;24.86;38.82
9740;BME280;4909;42.680;26.324;2022-08-01T04:38:48;98094.72;;;25.05;36.38
9740;BME280;4909;42.680;26.324;2022-08-01T04:41:17;98101.16;;;25.21;37.51
9740;BME280;4909;42.680;26.324;2022-08-01T04:43:45;98081.97;;;25.14;36.89
9740;BME280;4909;42.680;26.324;2022-08-01T04:46:13;98093.81;;;25.29;37.10
9740;BME280;4909;42.680;26.324;2022-08-01T04:48:43;98061.91;;;25.23;37.03
9740;BME280;4909;42.680;26.324;2022-08-01T04:51:12;98074.75;;;25.45;36.56
9740;BME280;4909;42.680;26.324;2022-08-01T04:53:40;98071.69;;;25.48;36.70
9740;BME280;4909;42.680;26.324;2022-08-01T04:56:07;98076.56;;;25.69;35.50
9740;BME280;4909;42.680;26.324;2022-08-01T04:58:35;98081.16;;;25.69;36.20
9740;BME280;4909;42.680;26.324;2022-08-01T05:01:01;98084.44;;;25.87;35.39
9740;BME280;4909;42.680;26.324;2022-08-01T05:03:28;98080.19;;;25.92;35.83
9740;BME280;4909;42.680;26.324;2022-08-01T05:05:56;98072.91;;;25.85;35.34
9740;BME280;4909;42.680;26.324;2022-08-01T05:08:23;98079.47;;;25.99;35.99
9740;BME280;4909;42.680;26.324;2022-08-01T05:10:50;98073.81;;;26.00;35.01
9740;BME280;4909;42.680;26.324;2022-08-01T05:13:18;98072.53;;;26.27;35.54
9740;BME280;4909;42.680;26.324;2022-08-01T05:15:45;98075.88;;;26.29;34.63
9740;BME280;4909;42.680;26.324;2022-08-01T05:18:12;98078.38;;;26.38;34.64
9740;BME280;4909;42.680;26.324;2022-08-01T05:20:40;98082.63;;;26.41;33.87
9740;BME280;4909;42.680;26.324;2022-08-01T05:23:08;98082.53;;;26.49;34.53
9740;BME280;4909;42.680;26.324;2022-08-01T05:25:35;98082.19;;;26.52;33.71
9740;BME280;4909;42.680;26.324;2022-08-01T05:28:02;98077.94;;;26.50;34.21
9740;BME280;4909;42.680;26.324;2022-08-01T05:30:29;98082.00;;;26.54;34.49
9740;BME280;4909;42.680;26.324;2022-08-01T05:32:56;98087.75;;;26.59;34.13
9740;BME280;4909;42.680;26.324;2022-08-01T05:35:23;98081.63;;;26.79;33.50
9740;BME280;4909;42.680;26.324;2022-08-01T05:37:50;98089.78;;;26.79;33.56
9740;BME280;4909;42.680;26.324;2022-08-01T05:40:18;98100.69;;;26.79;32.93
9740;BME280;4909;42.680;26.324;2022-08-01T05:42:45;98094.00;;;26.67;32.54
9740;BME280;4909;42.680;26.324;2022-08-01T05:45:12;98091.63;;;26.64;32.79
9740;BME280;4909;42.680;26.324;2022-08-01T05:47:39;98086.94;;;26.73;33.09
9740;BME280;4909;42.680;26.324;2022-08-01T05:50:07;98080.44;;;26.59;32.48
9740;BME280;4909;42.680;26.324;2022-08-01T05:52:34;98073.97;;;26.60;33.13
9740;BME280;4909;42.680;26.324;2022-08-01T05:55:01;98080.19;;;26.69;32.98
9740;BME280;4909;42.680;26.324;2022-08-01T05:57:29;98092.00;;;26.61;32.75
9740;BME280;4909;42.680;26.324;2022-08-01T05:59:56;98097.53;;;26.68;32.61
9740;BME280;4909;42.680;26.324;2022-08-01T06:02:23;98095.56;;;26.62;32.72
9740;BME280;4909;42.680;26.324;2022-08-01T06:04:49;98086.53;;;26.61;32.31
9740;BME280;4909;42.680;26.324;2022-08-01T06:07:16;98088.81;;;26.72;32.37
9740;BME280;4909;42.680;26.324;2022-08-01T06:09:43;98096.94;;;26.80;32.53
9740;BME280;4909;42.680;26.324;2022-08-01T06:12:10;98084.78;;;26.91;32.03
9740;BME280;4909;42.680;26.324;2022-08-01T06:14:38;98084.41;;;26.94;32.39
9740;BME280;4909;42.680;26.324;2022-08-01T06:17:05;98086.59;;;26.99;32.19
9740;BME280;4909;42.680;26.324;2022-08-01T06:19:32;98089.16;;;27.15;31.89
9740;BME280;4909;42.680;26.324;2022-08-01T06:21:59;98083.78;;;27.21;31.57
9740;BME280;4909;42.680;26.324;2022-08-01T06:24:26;98057.38;;;27.07;31.77
9740;BME280;4909;42.680;26.324;2022-08-01T06:26:52;98082.66;;;27.16;32.04
9740;BME280;4909;42.680;26.324;2022-08-01T06:29:19;98075.31;;;27.16;32.45
9740;BME280;4909;42.680;26.324;2022-08-01T06:31:48;98073.75;;;27.22;32.02
9740;BME280;4909;42.680;26.324;2022-08-01T06:34:15;98072.59;;;27.16;31.80
9740;BME280;4909;42.680;26.324;2022-08-01T06:36:41;98067.94;;;27.25;31.83
9740;BME280;4909;42.680;26.324;2022-08-01T06:39:08;98066.69;;;27.28;32.19
9740;BME280;4909;42.680;26.324;2022-08-01T06:41:35;98065.56;;;27.37;31.39
9740;BME280;4909;42.680;26.324;2022-08-01T06:44:02;98063.31;;;27.40;32.34
9740;BME280;4909;42.680;26.324;2022-08-01T06:46:29;98057.59;;;27.20;31.91
9740;BME280;4909;42.680;26.324;2022-08-01T06:48:58;98053.81;;;27.36;32.18
9740;BME280;4909;42.680;26.324;2022-08-01T06:51:25;98067.28;;;27.38;32.16
9740;BME280;4909;42.680;26.324;2022-08-01T06:53:52;98062.03;;;27.51;32.28
9740;BME280;4909;42.680;26.324;2022-08-01T06:56:19;98058.25;;;27.66;32.00
9740;BME280;4909;42.680;26.324;2022-08-01T06:58:46;98050.53;;;27.70;31.45
9740;BME280;4909;42.680;26.324;2022-08-01T07:01:13;98044.72;;;27.73;31.55
9740;BME280;4909;42.680;26.324;2022-08-01T07:03:40;98049.56;;;27.92;31.48
9740;BME280;4909;42.680;26.324;2022-08-01T07:06:08;98020.34;;;27.72;31.62
9740;BME280;4909;42.680;26.324;2022-08-01T07:08:35;98046.34;;;27.89;31.66
9740;BME280;4909;42.680;26.324;2022-08-01T07:11:02;98047.38;;;28.02;32.65
9740;BME280;4909;42.680;26.324;2022-08-01T07:13:29;98043.00;;;28.08;31.94
9740;BME280;4909;42.680;26.324;2022-08-01T07:15:56;98021.91;;;27.95;31.75
9740;BME280;4909;42.680;26.324;2022-08-01T07:18:23;98045.53;;;27.88;31.86
9740;BME280;4909;42.680;26.324;2022-08-01T07:20:50;98039.16;;;27.81;32.09
9740;BME280;4909;42.680;26.324;2022-08-01T07:23:18;98036.19;;;27.97;32.96
9740;BME280;4909;42.680;26.324;2022-08-01T07:25:45;98004.69;;;27.95;31.60
9740;BME280;4909;42.680;26.324;2022-08-01T07:28:14;98026.13;;;28.13;32.42
9740;BME280;4909;42.680;26.324;2022-08-01T07:30:40;98026.75;;;28.15;33.00
9740;BME280;4909;42.680;26.324;2022-08-01T07:33:09;98031.19;;;28.16;32.07
9740;BME280;4909;42.680;26.324;2022-08-01T07:35:36;98023.13;;;28.29;31.67
9740;BME280;4909;42.680;26.324;2022-08-01T07:38:03;98026.97;;;28.34;32.28
9740;BME280;4909;42.680;26.324;2022-08-01T07:40:32;98021.91;;;28.31;31.28
9740;BME280;4909;42.680;26.324;2022-08-01T07:42:58;98026.56;;;28.37;31.46
9740;BME280;4909;42.680;26.324;2022-08-01T07:45:25;98025.59;;;28.45;31.69
9740;BME280;4909;42.680;26.324;2022-08-01T07:47:53;98013.91;;;28.51;30.86
9740;BME280;4909;42.680;26.324;2022-08-01T07:50:20;98028.44;;;28.58;31.17
9740;BME280;4909;42.680;26.324;2022-08-01T07:52:47;98034.81;;;28.65;30.80
9740;BME280;4909;42.680;26.324;2022-08-01T07:55:14;98050.91;;;28.75;30.49
9740;BME280;4909;42.680;26.324;2022-08-01T07:57:42;98045.88;;;28.78;31.13
9740;BME280;4909;42.680;26.324;2022-08-01T08:00:10;98051.94;;;28.74;30.43
9740;BME280;4909;42.680;26.324;2022-08-01T08:02:37;98037.50;;;28.80;30.98
9740;BME280;4909;42.680;26.324;2022-08-01T08:05:04;98043.25;;;28.70;32.04
9740;BME280;4909;42.680;26.324;2022-08-01T08:07:32;98038.19;;;28.67;30.15
9740;BME280;4909;42.680;26.324;2022-08-01T08:09:59;98057.22;;;28.75;30.99
9740;BME280;4909;42.680;26.324;2022-08-01T08:12:26;98059.84;;;28.90;30.97
9740;BME280;4909;42.680;26.324;2022-08-01T08:14:54;98048.94;;;28.97;30.61
9740;BME280;4909;42.680;26.324;2022-08-01T08:17:21;98044.88;;;28.86;30.44
9740;BME280;4909;42.680;26.324;2022-08-01T08:19:48;98054.81;;;28.93;30.33
9740;BME280;4909;42.680;26.324;2022-08-01T08:22:15;98043.50;;;28.97;30.46
9740;BME280;4909;42.680;26.324;2022-08-01T08:24:42;98032.91;;;28.87;30.49
9740;BME280;4909;42.680;26.324;2022-08-01T08:27:09;98039.56;;;29.06;30.64
9740;BME280;4909;42.680;26.324;2022-08-01T08:29:36;98032.25;;;29.13;30.40
9740;BME280;4909;42.680;26.324;2022-08-01T08:32:05;98038.53;;;29.07;30.05
9740;BME280;4909;42.680;26.324;2022-08-01T08:34:32;98019.16;;;29.02;30.10
9740;BME280;4909;42.680;26.324;2022-08-01T08:36:59;98030.66;;;29.25;30.21
9740;BME280;4909;42.680;26.324;2022-08-01T08:39:26;98043.00;;;29.49;30.23
9740;BME280;4909;42.680;26.324;2022-08-01T08:41:55;98018.16;;;29.44;29.87
9740;BME280;4909;42.680;26.324;2022-08-01T08:44:22;98031.09;;;29.63;29.73
9740;BME280;4909;42.680;26.324;2022-08-01T08:46:51;98042.69;;;29.65;29.55
9740;BME280;4909;42.680;26.324;2022-08-01T08:49:22;98031.78;;;29.78;30.09
9740;BME280;4909;42.680;26.324;2022-08-01T08:51:50;98031.19;;;29.83;29.39
9740;BME280;4909;42.680;26.324;2022-08-01T08:54:19;98051.59;;;29.80;29.17
9740;BME280;4909;42.680;26.324;2022-08-01T08:56:47;98046.53;;;29.84;29.14
9740;BME280;4909;42.680;26.324;2022-08-01T08:59:15;98036.75;;;29.96;29.13
9740;BME280;4909;42.680;26.324;2022-08-01T09:01:43;98032.31;;;29.95;28.82
9740;BME280;4909;42.680;26.324;2022-08-01T09:04:10;98025.00;;;30.08;28.82
9740;BME280;4909;42.680;26.324;2022-08-01T09:06:39;98035.75;;;30.23;29.06
9740;BME280;4909;42.680;26.324;2022-08-01T09:09:07;98027.63;;;30.49;28.40
9740;BME280;4909;42.680;26.324;2022-08-01T09:11:37;98007.41;;;30.57;28.34
9740;BME280;4909;42.680;26.324;2022-08-01T09:14:07;98019.41;;;30.76;28.14
9740;BME280;4909;42.680;26.324;2022-08-01T09:16:35;98034.00;;;31.02;27.70
9740;BME280;4909;42.680;26.324;2022-08-01T09:19:11;98030.34;;;31.35;28.04
9740;BME280;4909;42.680;26.324;2022-08-01T09:21:40;98022.91;;;31.48;26.82
9740;BME280;4909;42.680;26.324;2022-08-01T09:24:21;98008.75;;;31.65;27.29
9740;BME280;4909;42.680;26.324;2022-08-01T09:26:48;98021.19;;;31.67;26.98
9740;BME280;4909;42.680;26.324;2022-08-01T09:29:20;98026.28;;;31.57;27.14
9740;BME280;4909;42.680;26.324;2022-08-01T09:31:48;98041.75;;;31.32;26.80
9740;BME280;4909;42.680;26.324;2022-08-01T09:34:16;98031.22;;;30.70;28.05
9740;BME280;4909;42.680;26.324;2022-08-01T09:36:52;98033.69;;;30.38;28.22
9740;BME280;4909;42.680;26.324;2022-08-01T09:39:22;98040.38;;;30.09;28.34
9740;BME280;4909;42.680;26.324;2022-08-01T09:41:49;98019.75;;;30.20;28.73
9740;BME280;4909;42.680;26.324;2022-08-01T09:44:17;98019.63;;;30.54;28.75
9740;BME280;4909;42.680;26.324;2022-08-01T09:46:50;98029.50;;;30.55;28.52
9740;BME280;4909;42.680;26.324;2022-08-01T09:49:27;98025.31;;;30.66;28.08
9740;BME280;4909;42.680;26.324;2022-08-01T09:51:56;98013.72;;;30.77;28.17
9740;BME280;4909;42.680;26.324;2022-08-01T09:54:31;98019.19;;;30.97;27.98
9740;BME280;4909;42.680;26.324;2022-08-01T09:57:10;98007.63;;;31.08;27.60
9740;BME280;4909;42.680;26.324;2022-08-01T09:59:39;98012.22;;;31.21;27.29
9740;BME280;4909;42.680;26.324;2022-08-01T10:02:08;98029.09;;;31.31;27.65
9740;BME280;4909;42.680;26.324;2022-08-01T10:04:36;97995.78;;;31.01;27.16
9740;BME280;4909;42.680;26.324;2022-08-01T10:07:06;98018.53;;;31.34;27.51
9740;BME280;4909;42.680;26.324;2022-08-01T10:09:35;98012.88;;;31.16;27.60
9740;BME280;4909;42.680;26.324;2022-08-01T10:12:03;97978.94;;;30.84;27.95
9740;BME280;4909;42.680;26.324;2022-08-01T10:14:31;98009.94;;;30.98;28.20
9740;BME280;4909;42.680;26.324;2022-08-01T10:17:00;97989.25;;;31.08;28.05
9740;BME280;4909;42.680;26.324;2022-08-01T10:19:29;98007.31;;;31.42;28.03
9740;BME280;4909;42.680;26.324;2022-08-01T10:21:57;98002.69;;;31.56;27.13
9740;BME280;4909;42.680;26.324;2022-08-01T10:24:27;98015.31;;;31.64;27.29
9740;BME280;4909;42.680;26.324;2022-08-01T10:26:59;98010.31;;;31.34;26.97
9740;BME280;4909;42.680;26.324;2022-08-01T10:29:36;98016.44;;;31.30;27.81
9740;BME280;4909;42.680;26.324;2022-08-01T10:32:04;98020.22;;;31.29;27.44
9740;BME280;4909;42.680;26.324;2022-08-01T10:34:33;98013.72;;;31.17;27.78
9740;BME280;4909;42.680;26.324;2022-08-01T10:37:00;98009.53;;;31.08;28.01
9740;BME280;4909;42.680;26.324;2022-08-01T10:39:30;98019.00;;;31.05;28.03
9740;BME280;4909;42.680;26.324;2022-08-01T10:41:58;98017.97;;;31.13;28.02
9740;BME280;4909;42.680;26.324;2022-08-01T10:44:26;98027.63;;;31.15;27.73
9740;BME280;4909;42.680;26.324;2022-08-01T10:46:59;98007.84;;;31.06;28.03
9740;BME280;4909;42.680;26.324;2022-08-01T10:49:30;98019.00;;;31.05;28.06
9740;BME280;4909;42.680;26.324;2022-08-01T10:51:59;97998.97;;;30.98;28.21
9740;BME280;4909;42.680;26.324;2022-08-01T10:54:26;98020.03;;;30.97;28.34
9740;BME280;4909;42.680;26.324;2022-08-01T10:56:59;98025.34;;;31.12;28.28
9740;BME280;4909;42.680;26.324;2022-08-01T10:59:27;98033.53;;;30.92;29.20
9740;BME280;4909;42.680;26.324;2022-08-01T11:01:56;98025.09;;;30.94;28.88
9740;BME280;4909;42.680;26.324;2022-08-01T11:04:41;98021.34;;;31.01;29.00
9740;BME280;4909;42.680;26.324;2022-08-01T11:07:16;98024.69;;;30.84;28.62
9740;BME280;4909;42.680;26.324;2022-08-01T11:09:44;98009.94;;;30.72;28.69
9740;BME280;4909;42.680;26.324;2022-08-01T11:12:15;98012.25;;;30.68;28.84
9740;BME280;4909;42.680;26.324;2022-08-01T11:15:17;98019.44;;;30.69;28.91
9740;BME280;4909;42.680;26.324;2022-08-01T11:17:50;98019.00;;;30.65;29.03
9740;BME280;4909;42.680;26.324;2022-08-01T11:20:19;98021.97;;;30.84;28.77
9740;BME280;4909;42.680;26.324;2022-08-01T11:26:20;98010.56;;;30.60;28.92
9740;BME280;4909;42.680;26.324;2022-08-01T11:29:19;98015.81;;;30.55;29.50
9740;BME280;4909;42.680;26.324;2022-08-01T11:31:46;98019.63;;;30.54;29.38
9740;BME280;4909;42.680;26.324;2022-08-01T11:34:12;98023.84;;;30.63;29.31
9740;BME280;4909;42.680;26.324;2022-08-01T11:36:39;97997.28;;;30.51;29.12
9740;BME280;4909;42.680;26.324;2022-08-01T11:39:14;98011.81;;;30.64;29.31
9740;BME280;4909;42.680;26.324;2022-08-01T11:41:42;98009.28;;;30.56;29.39
9740;BME280;4909;42.680;26.324;2022-08-01T11:44:11;98023.00;;;30.70;28.86
9740;BME280;4909;42.680;26.324;2022-08-01T11:46:53;98024.00;;;30.42;29.42
9740;BME280;4909;42.680;26.324;2022-08-01T11:49:29;97993.25;;;30.34;28.76
9740;BME280;4909;42.680;26.324;2022-08-01T11:52:04;98019.38;;;30.43;29.24
9740;BME280;4909;42.680;26.324;2022-08-01T11:54:33;97994.09;;;30.34;29.74
9740;BME280;4909;42.680;26.324;2022-08-01T11:57:02;98013.09;;;30.49;29.20
9740;BME280;4909;42.680;26.324;2022-08-01T11:59:35;98002.09;;;30.42;29.36
9740;BME280;4909;42.680;26.324;2022-08-01T12:02:04;98025.50;;;30.45;29.39
9740;BME280;4909;42.680;26.324;2022-08-01T12:04:48;98009.84;;;30.12;30.04
9740;BME280;4909;42.680;26.324;2022-08-01T12:07:16;98010.47;;;30.01;29.88
9740;BME280;4909;42.680;26.324;2022-08-01T12:09:43;98002.22;;;29.95;30.43
9740;BME280;4909;42.680;26.324;2022-08-01T12:12:14;98011.72;;;30.05;30.54
9740;BME280;4909;42.680;26.324;2022-08-01T12:14:42;98018.91;;;30.26;30.14
9740;BME280;4909;42.680;26.324;2022-08-01T12:17:10;98000.78;;;30.18;30.21
9740;BME280;4909;42.680;26.324;2022-08-01T12:19:37;97994.25;;;30.13;30.09
9740;BME280;4909;42.680;26.324;2022-08-01T12:22:11;97985.44;;;30.11;30.82
9740;BME280;4909;42.680;26.324;2022-08-01T12:24:40;97984.94;;;29.94;30.67
9740;BME280;4909;42.680;26.324;2022-08-01T12:27:10;97988.13;;;30.04;30.78
9740;BME280;4909;42.680;26.324;2022-08-01T12:29:39;98005.81;;;30.02;29.77
9740;BME280;4909;42.680;26.324;2022-08-01T12:35:03;97988.47;;;29.88;30.13
9740;BME280;4909;42.680;26.324;2022-08-01T12:37:31;97989.19;;;30.03;30.63
9740;BME280;4909;42.680;26.324;2022-08-01T12:39:59;97987.28;;;30.04;29.63
9740;BME280;4909;42.680;26.324;2022-08-01T12:42:26;97982.47;;;30.12;29.44
9740;BME280;4909;42.680;26.324;2022-08-01T12:44:54;97989.88;;;30.25;29.69
9740;BME280;4909;42.680;26.324;2022-08-01T12:47:21;97981.84;;;30.17;29.08
9740;BME280;4909;42.680;26.324;2022-08-01T12:49:49;97981.00;;;30.23;29.27
9740;BME280;4909;42.680;26.324;2022-08-01T12:52:18;97963.53;;;30.11;30.00
9740;BME280;4909;42.680;26.324;2022-08-01T12:55:01;97983.97;;;30.15;29.74
9740;BME280;4909;42.680;26.324;2022-08-01T12:57:28;97989.00;;;30.18;29.21
9740;BME280;4909;42.680;26.324;2022-08-01T13:00:06;97973.00;;;30.28;29.40
9740;BME280;4909;42.680;26.324;2022-08-01T13:02:33;97972.81;;;30.23;29.33
9740;BME280;4909;42.680;26.324;2022-08-01T13:05:00;97973.00;;;30.28;29.12
9740;BME280;4909;42.680;26.324;2022-08-01T13:07:40;97983.75;;;30.10;29.59
9740;BME280;4909;42.680;26.324;2022-08-01T13:10:09;97976.16;;;30.05;29.52
9740;BME280;4909;42.680;26.324;2022-08-01T13:12:36;97971.28;;;30.07;29.00
9740;BME280;4909;42.680;26.324;2022-08-01T13:15:17;97978.47;;;30.08;29.46
9740;BME280;4909;42.680;26.324;2022-08-01T13:17:44;97964.75;;;30.02;29.52
9740;BME280;4909;42.680;26.324;2022-08-01T13:20:21;97970.28;;;30.15;29.64
9740;BME280;4909;42.680;26.324;2022-08-01T13:22:50;97973.00;;;30.15;29.23
9740;BME280;4909;42.680;26.324;2022-08-01T13:25:17;97975.09;;;30.13;29.35
9740;BME280;4909;42.680;26.324;2022-08-01T13:27:44;97967.06;;;29.92;30.04